createdAt,value
2022-10-01T00:01:18.663Z,100.00
2022-10-01T00:03:47.577Z,100.00
2022-10-01T00:06:20.907Z,100.00
2022-10-01T00:08:50.275Z,100.00
2022-10-01T00:11:22.497Z,100.00
2022-10-01T00:13:50.455Z,100.00
2022-10-01T00:16:21.925Z,100.00
2022-10-01T00:18:49.913Z,100.00
2022-10-01T00:21:27.220Z,100.00
2022-10-01T00:24:05.255Z,100.00
2022-10-01T00:26:37.688Z,100.00
2022-10-01T00:29:13.053Z,100.00
2022-10-01T00:31:40.352Z,100.00
2022-10-01T00:34:07.292Z,100.00
2022-10-01T00:36:34.846Z,100.00
2022-10-01T00:39:02.202Z,100.00
2022-10-01T00:41:33.899Z,100.00
2022-10-01T00:44:27.874Z,100.00
2022-10-01T00:47:02.982Z,100.00
2022-10-01T00:49:36.326Z,100.00
2022-10-01T00:52:13.190Z,100.00
2022-10-01T00:54:42.650Z,100.00
2022-10-01T00:57:12.490Z,100.00
2022-10-01T00:59:39.446Z,100.00
2022-10-01T01:02:06.388Z,100.00
2022-10-01T01:04:33.223Z,100.00
2022-10-01T01:07:04.128Z,100.00
2022-10-01T01:09:51.177Z,100.00
2022-10-01T01:13:05.352Z,100.00
2022-10-01T01:15:53.968Z,100.00
2022-10-01T01:18:49.403Z,100.00
2022-10-01T01:21:33.726Z,100.00
2022-10-01T01:24:05.527Z,100.00
2022-10-01T01:27:13.729Z,100.00
2022-10-01T01:30:17.923Z,100.00
2022-10-01T01:33:03.254Z,100.00
2022-10-01T01:35:55.814Z,100.00
2022-10-01T01:38:34.473Z,100.00
2022-10-01T01:41:06.028Z,100.00
2022-10-01T01:43:40.788Z,100.00
2022-10-01T01:46:11.705Z,100.00
2022-10-01T01:48:41.848Z,100.00
2022-10-01T01:51:16.866Z,100.00
2022-10-01T01:53:43.705Z,100.00
2022-10-01T01:56:11.232Z,100.00
2022-10-01T01:58:39.522Z,100.00
2022-10-01T02:01:06.355Z,100.00
2022-10-01T02:03:35.502Z,100.00
2022-10-01T02:06:31.269Z,100.00
2022-10-01T02:09:25.521Z,100.00
2022-10-01T02:12:19.710Z,100.00
2022-10-01T02:14:58.593Z,100.00
2022-10-01T02:17:54.719Z,100.00
2022-10-01T02:20:36.103Z,100.00
2022-10-01T02:23:19.734Z,100.00
2022-10-01T02:25:58.364Z,100.00
2022-10-01T02:28:26.120Z,100.00
2022-10-01T02:30:55.754Z,100.00
2022-10-01T02:33:30.162Z,100.00
2022-10-01T02:36:00.946Z,100.00
2022-10-01T02:38:29.545Z,100.00
2022-10-01T02:41:02.276Z,100.00
2022-10-01T02:43:42.802Z,100.00
2022-10-01T02:46:34.540Z,100.00
2022-10-01T02:49:02.868Z,100.00
2022-10-01T02:51:53.376Z,100.00
2022-10-01T02:54:34.824Z,100.00
2022-10-01T02:57:20.030Z,100.00
2022-10-01T02:59:47.090Z,100.00
2022-10-01T03:02:13.962Z,100.00
2022-10-01T03:04:40.821Z,100.00
2022-10-01T03:07:07.608Z,100.00
2022-10-01T03:09:36.800Z,100.00
2022-10-01T03:12:04.249Z,100.00
2022-10-01T03:14:32.330Z,100.00
2022-10-01T03:16:59.065Z,100.00
2022-10-01T03:19:25.762Z,100.00
2022-10-01T03:21:52.533Z,100.00
2022-10-01T03:24:19.243Z,100.00
2022-10-01T03:26:45.995Z,100.00
2022-10-01T03:29:13.303Z,100.00
2022-10-01T03:31:40.138Z,100.00
2022-10-01T03:34:07.183Z,100.00
2022-10-01T03:36:33.999Z,100.00
2022-10-01T03:39:00.732Z,100.00
2022-10-01T03:41:27.461Z,100.00
2022-10-01T03:43:58.300Z,100.00
2022-10-01T03:46:26.459Z,100.00
2022-10-01T03:48:53.182Z,100.00
2022-10-01T03:51:20.763Z,100.00
2022-10-01T03:53:48.047Z,100.00
2022-10-01T03:56:16.415Z,100.00
2022-10-01T03:58:43.154Z,100.00
2022-10-01T04:01:09.954Z,100.00
2022-10-01T04:03:36.745Z,100.00
2022-10-01T04:06:03.675Z,100.00
2022-10-01T04:08:30.469Z,100.00
2022-10-01T04:10:57.216Z,100.00
2022-10-01T04:13:24.177Z,100.00
2022-10-01T04:15:50.928Z,100.00
2022-10-01T04:18:21.523Z,100.00
2022-10-01T04:20:48.628Z,100.00
2022-10-01T04:23:15.701Z,100.00
2022-10-01T04:25:42.561Z,100.00
2022-10-01T04:28:12.999Z,100.00
2022-10-01T04:30:43.117Z,100.00
2022-10-01T04:33:16.328Z,100.00
2022-10-01T04:35:44.303Z,100.00
2022-10-01T04:38:16.979Z,100.00
2022-10-01T04:40:43.975Z,100.00
2022-10-01T04:43:13.260Z,100.00
2022-10-01T04:45:40.038Z,100.00
2022-10-01T04:48:06.802Z,100.00
2022-10-01T04:50:33.592Z,100.00
2022-10-01T04:53:00.365Z,100.00
2022-10-01T04:55:27.290Z,100.00
2022-10-01T04:57:54.225Z,100.00
2022-10-01T05:00:26.583Z,100.00
2022-10-01T05:02:54.416Z,100.00
2022-10-01T05:05:24.678Z,100.00
2022-10-01T05:07:51.466Z,100.00
2022-10-01T05:10:21.557Z,100.00
2022-10-01T05:12:49.702Z,100.00
2022-10-01T05:15:17.608Z,100.00
2022-10-01T05:17:45.177Z,100.00
2022-10-01T05:20:21.474Z,100.00
2022-10-01T05:22:49.580Z,100.00
2022-10-01T05:25:18.084Z,100.00
2022-10-01T05:27:45.489Z,100.00
2022-10-01T05:30:18.646Z,100.00
2022-10-01T05:32:55.386Z,100.00
2022-10-01T05:35:22.262Z,100.00
2022-10-01T05:37:56.510Z,100.00
2022-10-01T05:40:28.419Z,100.00
2022-10-01T05:42:58.428Z,100.00
2022-10-01T05:45:28.669Z,100.00
2022-10-01T05:48:04.865Z,100.00
2022-10-01T05:50:35.600Z,100.00
2022-10-01T05:53:02.611Z,100.00
2022-10-01T05:55:34.842Z,100.00
2022-10-01T05:58:07.714Z,100.00
2022-10-01T06:00:35.890Z,100.00
2022-10-01T06:03:05.237Z,100.00
2022-10-01T06:05:34.959Z,100.00
2022-10-01T06:08:05.053Z,100.00
2022-10-01T06:10:31.943Z,100.00
2022-10-01T06:13:05.449Z,100.00
2022-10-01T06:15:37.808Z,100.00
2022-10-01T06:18:10.420Z,100.00
2022-10-01T06:20:38.557Z,100.00
2022-10-01T06:23:12.062Z,100.00
2022-10-01T06:25:41.760Z,100.00
2022-10-01T06:28:11.744Z,100.00
2022-10-01T06:30:40.110Z,100.00
2022-10-01T06:33:12.292Z,100.00
2022-10-01T06:35:48.622Z,100.00
2022-10-01T06:38:17.366Z,100.00
2022-10-01T06:40:44.440Z,100.00
2022-10-01T06:43:11.199Z,100.00
2022-10-01T06:45:43.617Z,100.00
2022-10-01T06:48:15.598Z,100.00
2022-10-01T06:50:45.572Z,100.00
2022-10-01T06:53:15.217Z,100.00
2022-10-01T06:55:42.386Z,100.00
2022-10-01T06:58:15.346Z,100.00
2022-10-01T07:00:43.860Z,100.00
2022-10-01T07:03:18.270Z,100.00
2022-10-01T07:05:45.848Z,100.00
2022-10-01T07:08:13.095Z,100.00
2022-10-01T07:10:41.046Z,100.00
2022-10-01T07:13:18.019Z,100.00
2022-10-01T07:15:45.999Z,100.00
2022-10-01T07:18:13.768Z,100.00
2022-10-01T07:20:41.001Z,100.00
2022-10-01T07:23:13.730Z,100.00
2022-10-01T07:25:42.270Z,100.00
2022-10-01T07:28:16.668Z,100.00
2022-10-01T07:30:58.483Z,100.00
2022-10-01T07:33:25.633Z,100.00
2022-10-01T07:35:52.473Z,100.00
2022-10-01T07:38:19.265Z,100.00
2022-10-01T07:40:52.174Z,100.00
2022-10-01T07:43:19.141Z,100.00
2022-10-01T07:45:50.080Z,100.00
2022-10-01T07:48:17.319Z,100.00
2022-10-01T07:50:45.292Z,100.00
2022-10-01T07:53:13.800Z,100.00
2022-10-01T07:55:40.630Z,100.00
2022-10-01T07:58:08.185Z,100.00
2022-10-01T08:00:35.420Z,100.00
2022-10-01T08:03:02.344Z,100.00
2022-10-01T08:05:35.792Z,100.00
2022-10-01T08:08:06.999Z,100.00
2022-10-01T08:10:36.443Z,100.00
2022-10-01T08:13:08.794Z,100.00
2022-10-01T08:15:36.217Z,100.00
2022-10-01T08:18:04.751Z,100.00
2022-10-01T08:20:32.053Z,100.00
2022-10-01T08:23:05.986Z,100.00
2022-10-01T08:25:33.536Z,100.00
2022-10-01T08:28:00.721Z,100.00
2022-10-01T08:30:28.833Z,100.00
2022-10-01T08:33:00.630Z,100.00
2022-10-01T08:35:28.966Z,100.00
2022-10-01T08:38:01.445Z,100.00
2022-10-01T08:40:29.381Z,100.00
2022-10-01T08:43:24.739Z,100.00
2022-10-01T08:45:58.212Z,100.00
2022-10-01T08:48:37.323Z,100.00
2022-10-01T08:51:29.135Z,100.00
2022-10-01T08:54:19.859Z,100.00
2022-10-01T08:56:47.906Z,100.00
2022-10-01T08:59:36.018Z,100.00
2022-10-01T09:02:10.505Z,100.00
2022-10-01T09:04:37.241Z,100.00
2022-10-01T09:07:21.139Z,100.00
2022-10-01T09:10:18.229Z,100.00
2022-10-01T09:13:06.775Z,100.00
2022-10-01T09:16:07.324Z,100.00
2022-10-01T09:19:31.687Z,100.00
2022-10-01T09:22:06.077Z,100.00
2022-10-01T09:24:54.122Z,100.00
2022-10-01T09:27:27.342Z,100.00
2022-10-01T09:30:07.431Z,100.00
2022-10-01T09:32:53.881Z,100.00
2022-10-01T09:35:44.136Z,100.00
2022-10-01T09:38:48.606Z,100.00
2022-10-01T09:41:16.088Z,100.00
2022-10-01T09:43:44.538Z,100.00
2022-10-01T09:46:17.410Z,100.00
2022-10-01T09:49:13.187Z,100.00
2022-10-01T09:51:46.226Z,100.00
2022-10-01T09:54:53.432Z,100.00
2022-10-01T09:57:31.476Z,100.00
2022-10-01T10:00:09.793Z,100.00
2022-10-01T10:02:42.377Z,100.00
2022-10-01T10:05:19.325Z,100.00
2022-10-01T10:07:53.317Z,100.00
2022-10-01T10:10:26.087Z,100.00
2022-10-01T10:13:23.830Z,100.00
2022-10-01T10:15:57.831Z,100.00
2022-10-01T10:18:35.709Z,100.00
2022-10-01T10:21:16.211Z,100.00
2022-10-01T10:23:54.717Z,100.00
2022-10-01T10:26:35.666Z,100.00
2022-10-01T10:29:05.288Z,100.00
2022-10-01T10:31:45.243Z,100.00
2022-10-01T10:34:22.768Z,100.00
2022-10-01T10:36:58.824Z,100.00
2022-10-01T10:39:29.417Z,100.00
2022-10-01T10:41:59.005Z,100.00
2022-10-01T10:44:36.308Z,100.00
2022-10-01T10:47:11.785Z,100.00
2022-10-01T10:50:01.279Z,99.46
2022-10-01T10:52:33.360Z,99.52
2022-10-01T10:55:19.059Z,98.98
2022-10-01T10:57:47.010Z,100.00
2022-10-01T11:00:17.049Z,100.00
2022-10-01T11:03:01.563Z,100.00
2022-10-01T11:05:32.758Z,100.00
2022-10-01T11:08:17.633Z,100.00
2022-10-01T11:11:09.885Z,100.00
2022-10-01T11:13:37.953Z,100.00
2022-10-01T11:16:24.265Z,100.00
2022-10-01T11:19:05.798Z,100.00
2022-10-01T11:21:45.098Z,100.00
2022-10-01T11:24:51.037Z,98.46
2022-10-01T11:27:56.452Z,97.77
2022-10-01T11:30:29.936Z,95.30
2022-10-01T11:33:31.923Z,96.20
2022-10-01T11:36:24.984Z,96.35
2022-10-01T11:39:17.790Z,94.41
2022-10-01T11:42:00.564Z,93.88
2022-10-01T11:44:32.597Z,90.65
2022-10-01T11:47:24.202Z,87.85
2022-10-01T11:50:14.237Z,91.19
2022-10-01T11:52:57.022Z,87.02
2022-10-01T11:55:56.378Z,88.14
2022-10-01T11:59:02.434Z,89.16
2022-10-01T12:02:08.193Z,89.07
2022-10-01T12:04:46.538Z,89.77
2022-10-01T12:08:14.096Z,93.22
2022-10-01T12:10:50.160Z,96.56
2022-10-01T12:13:32.576Z,99.20
2022-10-01T12:16:11.143Z,100.00
2022-10-01T12:18:40.617Z,100.00
2022-10-01T12:21:24.061Z,100.00
2022-10-01T12:24:00.541Z,100.00
2022-10-01T12:26:47.317Z,100.00
2022-10-01T12:29:44.305Z,98.98
2022-10-01T12:32:40.158Z,99.19
2022-10-01T12:35:25.922Z,91.62
2022-10-01T12:38:17.367Z,90.46
2022-10-01T12:41:22.569Z,92.48
2022-10-01T12:44:19.882Z,94.08
2022-10-01T12:47:18.945Z,92.62
2022-10-01T12:50:18.255Z,88.23
2022-10-01T12:53:03.132Z,86.63
2022-10-01T12:56:01.605Z,85.61
2022-10-01T12:58:47.136Z,86.52
2022-10-01T13:01:41.058Z,85.97
2022-10-01T13:04:27.918Z,82.79
2022-10-01T13:07:03.667Z,82.49
2022-10-01T13:09:46.594Z,81.39
2022-10-01T13:13:08.978Z,80.77
2022-10-01T13:15:47.647Z,78.46
2022-10-01T13:19:00.428Z,77.47
2022-10-01T13:22:07.830Z,76.79
2022-10-01T13:25:10.071Z,75.78
2022-10-01T13:27:54.809Z,77.25
2022-10-01T13:30:41.123Z,76.84
2022-10-01T13:33:32.081Z,75.51
2022-10-01T13:36:03.374Z,76.03
2022-10-01T13:38:38.832Z,74.45
2022-10-01T13:41:22.525Z,71.56
2022-10-01T13:44:07.875Z,71.30
2022-10-01T13:46:51.056Z,68.94
2022-10-01T13:49:30.051Z,66.21
2022-10-01T13:51:58.964Z,62.95
2022-10-01T13:54:39.822Z,63.15
2022-10-01T13:57:37.149Z,62.60
2022-10-01T14:00:12.662Z,60.91
2022-10-01T14:02:45.156Z,63.02
2022-10-01T14:05:17.742Z,64.64
2022-10-01T14:07:52.006Z,65.68
2022-10-01T14:10:19.333Z,65.59
2022-10-01T14:13:06.534Z,66.93
2022-10-01T14:15:59.867Z,65.54
2022-10-01T14:18:49.736Z,66.28
2022-10-01T14:21:43.626Z,64.80
2022-10-01T14:24:19.314Z,65.30
2022-10-01T14:27:24.912Z,64.43
2022-10-01T14:30:11.514Z,62.68
2022-10-01T14:33:07.656Z,61.94
2022-10-01T14:35:45.315Z,62.34
2022-10-01T14:38:18.553Z,63.97
2022-10-01T14:40:49.764Z,61.18
2022-10-01T14:43:22.244Z,61.42
2022-10-01T14:46:01.075Z,58.68
2022-10-01T14:48:34.956Z,59.17
2022-10-01T14:51:06.074Z,60.78
2022-10-01T14:53:37.986Z,61.19
2022-10-01T14:56:12.146Z,61.86
2022-10-01T14:58:53.771Z,61.36
2022-10-01T15:01:24.101Z,60.71
2022-10-01T15:03:52.514Z,62.16
2022-10-01T15:06:28.071Z,62.82
2022-10-01T15:09:08.088Z,62.92
2022-10-01T15:11:35.113Z,63.41
2022-10-01T15:14:08.303Z,63.61
2022-10-01T15:16:37.096Z,62.93
2022-10-01T15:19:12.097Z,63.49
2022-10-01T15:21:45.425Z,64.40
2022-10-01T15:24:46.409Z,64.87
2022-10-01T15:27:19.334Z,63.41
2022-10-01T15:29:56.104Z,63.55
2022-10-01T15:32:25.156Z,64.20
2022-10-01T15:35:00.636Z,64.52
2022-10-01T15:37:31.788Z,65.54
2022-10-01T15:40:00.578Z,65.86
2022-10-01T15:42:32.782Z,66.48
2022-10-01T15:45:08.519Z,66.67
2022-10-01T15:47:40.123Z,68.05
2022-10-01T15:50:10.022Z,68.10
2022-10-01T15:53:02.934Z,69.04
2022-10-01T15:55:33.495Z,69.43
2022-10-01T15:58:15.189Z,69.07
2022-10-01T16:01:09.148Z,69.36
2022-10-01T16:03:49.185Z,70.30
2022-10-01T16:06:25.691Z,71.77
2022-10-01T16:09:13.762Z,71.74
2022-10-01T16:12:19.943Z,72.30
2022-10-01T16:15:24.359Z,72.50
2022-10-01T16:18:02.532Z,73.41
2022-10-01T16:20:50.344Z,73.87
2022-10-01T16:23:44.804Z,74.29
2022-10-01T16:26:37.776Z,75.98
2022-10-01T16:29:23.962Z,77.61
2022-10-01T16:31:51.630Z,78.56
2022-10-01T16:34:21.086Z,79.84
2022-10-01T16:36:48.238Z,80.83
2022-10-01T16:39:15.614Z,81.81
2022-10-01T16:42:01.474Z,82.71
2022-10-01T16:44:39.313Z,83.08
2022-10-01T16:47:06.050Z,84.15
2022-10-01T16:49:33.313Z,84.85
2022-10-01T16:52:00.124Z,85.09
2022-10-01T16:54:27.260Z,85.86
2022-10-01T16:56:55.347Z,86.81
2022-10-01T16:59:23.844Z,87.08
2022-10-01T17:01:54.884Z,87.78
2022-10-01T17:04:23.529Z,88.29
2022-10-01T17:06:50.606Z,88.45
2022-10-01T17:09:17.355Z,88.54
2022-10-01T17:11:44.452Z,88.56
2022-10-01T17:14:21.095Z,88.30
2022-10-01T17:16:50.466Z,88.92
2022-10-01T17:19:18.419Z,89.19
2022-10-01T17:21:46.117Z,89.70
2022-10-01T17:24:13.451Z,90.22
2022-10-01T17:26:43.151Z,90.26
2022-10-01T17:29:10.165Z,90.43
2022-10-01T17:31:40.753Z,90.96
2022-10-01T17:34:08.300Z,91.40
2022-10-01T17:36:35.510Z,91.89
2022-10-01T17:39:02.545Z,92.16
2022-10-01T17:41:29.358Z,92.68
2022-10-01T17:43:57.445Z,93.29
2022-10-01T17:46:24.241Z,93.52
2022-10-01T17:48:50.988Z,94.46
2022-10-01T17:51:17.895Z,95.10
2022-10-01T17:53:44.647Z,95.33
2022-10-01T17:56:18.113Z,95.23
2022-10-01T17:58:46.321Z,95.21
2022-10-01T18:01:19.455Z,94.88
2022-10-01T18:03:46.276Z,95.17
2022-10-01T18:06:16.305Z,95.40
2022-10-01T18:08:58.934Z,95.59
2022-10-01T18:11:28.511Z,95.73
2022-10-01T18:13:55.513Z,95.45
2022-10-01T18:16:23.462Z,95.92
2022-10-01T18:21:47.549Z,95.31
2022-10-01T18:24:15.548Z,95.74
2022-10-01T18:26:42.330Z,95.77
2022-10-01T18:29:16.870Z,95.62
2022-10-01T18:31:46.518Z,95.51
2022-10-01T18:34:47.767Z,95.53
2022-10-01T18:37:43.870Z,95.63
2022-10-01T18:40:16.149Z,95.54
2022-10-01T18:43:04.259Z,95.95
2022-10-01T18:45:36.661Z,95.80
2022-10-01T18:48:44.685Z,96.24
2022-10-01T18:52:05.221Z,96.28
2022-10-01T18:54:52.786Z,96.83
2022-10-01T18:58:19.280Z,97.42
2022-10-01T19:01:37.703Z,97.91
2022-10-01T19:04:43.866Z,98.43
2022-10-01T19:07:54.829Z,99.09
2022-10-01T19:10:39.468Z,99.13
2022-10-01T19:13:36.549Z,99.24
2022-10-01T19:16:19.786Z,99.68
2022-10-01T19:19:28.179Z,99.82
2022-10-01T19:22:23.598Z,100.00
2022-10-01T19:25:13.873Z,100.00
2022-10-01T19:28:33.453Z,100.00
2022-10-01T19:31:22.385Z,100.00
2022-10-01T19:34:00.405Z,100.00
2022-10-01T19:36:35.344Z,100.00
2022-10-01T19:39:11.832Z,100.00
2022-10-01T19:41:55.189Z,100.00
2022-10-01T19:45:04.659Z,100.00
2022-10-01T19:47:40.153Z,100.00
2022-10-01T19:50:44.229Z,100.00
2022-10-01T19:53:32.971Z,100.00
2022-10-01T19:56:02.385Z,100.00
2022-10-01T19:58:30.626Z,100.00
2022-10-01T20:01:02.529Z,100.00
2022-10-01T20:03:43.620Z,100.00
2022-10-01T20:06:28.601Z,100.00
2022-10-01T20:09:17.125Z,100.00
2022-10-01T20:12:16.198Z,100.00
2022-10-01T20:15:10.525Z,100.00
2022-10-01T20:18:00.612Z,100.00
2022-10-01T20:21:08.374Z,100.00
2022-10-01T20:24:10.008Z,100.00
2022-10-01T20:26:47.658Z,100.00
2022-10-01T20:29:43.560Z,100.00
2022-10-01T20:32:31.838Z,100.00
2022-10-01T20:35:16.183Z,100.00
2022-10-01T20:38:20.584Z,100.00
2022-10-01T20:41:00.217Z,100.00
2022-10-01T20:43:49.183Z,100.00
2022-10-01T20:46:38.948Z,100.00
2022-10-01T20:49:24.792Z,100.00
2022-10-01T20:52:02.201Z,100.00
2022-10-01T20:54:43.784Z,100.00
2022-10-01T20:57:44.576Z,100.00
2022-10-01T21:00:20.521Z,100.00
2022-10-01T21:03:10.921Z,100.00
2022-10-01T21:05:43.300Z,100.00
2022-10-01T21:08:37.109Z,100.00
2022-10-01T21:11:26.175Z,100.00
2022-10-01T21:14:10.845Z,100.00
2022-10-01T21:16:56.660Z,100.00
2022-10-01T21:19:42.098Z,100.00
2022-10-01T21:22:46.420Z,100.00
2022-10-01T21:25:54.465Z,100.00
2022-10-01T21:28:40.098Z,100.00
2022-10-01T21:31:33.350Z,100.00
2022-10-01T21:34:09.174Z,100.00
2022-10-01T21:36:52.308Z,100.00
2022-10-01T21:39:33.654Z,100.00
2022-10-01T21:42:37.895Z,100.00
2022-10-01T21:45:33.528Z,100.00
2022-10-01T21:48:21.109Z,100.00
2022-10-01T21:50:50.808Z,100.00
2022-10-01T21:53:35.401Z,100.00
2022-10-01T21:56:38.895Z,100.00
2022-10-01T21:59:37.132Z,100.00
2022-10-01T22:02:24.056Z,100.00
2022-10-01T22:05:09.779Z,100.00
2022-10-01T22:07:58.202Z,100.00
2022-10-01T22:10:38.426Z,100.00
2022-10-01T22:13:17.754Z,100.00
2022-10-01T22:15:46.535Z,100.00
2022-10-01T22:18:37.690Z,100.00
2022-10-01T22:21:13.559Z,100.00
2022-10-01T22:23:51.775Z,100.00
2022-10-01T22:26:25.984Z,100.00
2022-10-01T22:28:56.174Z,100.00
2022-10-01T22:31:30.578Z,100.00
2022-10-01T22:34:08.213Z,100.00
2022-10-01T22:36:50.273Z,100.00
2022-10-01T22:39:36.037Z,100.00
2022-10-01T22:42:14.558Z,100.00
2022-10-01T22:44:41.407Z,100.00
2022-10-01T22:47:48.614Z,100.00
2022-10-01T22:50:57.778Z,100.00
2022-10-01T22:53:49.174Z,100.00
2022-10-01T22:56:30.286Z,100.00
2022-10-01T22:59:20.156Z,100.00
2022-10-01T23:02:07.474Z,100.00
2022-10-01T23:04:58.843Z,100.00
2022-10-01T23:08:09.209Z,100.00
2022-10-01T23:11:01.509Z,100.00
2022-10-01T23:13:45.486Z,100.00
2022-10-01T23:17:08.980Z,100.00
2022-10-01T23:20:21.820Z,100.00
2022-10-01T23:23:32.043Z,100.00
2022-10-01T23:26:11.116Z,100.00
2022-10-01T23:29:33.414Z,100.00
2022-10-01T23:32:21.434Z,100.00
2022-10-01T23:35:13.022Z,100.00
2022-10-01T23:38:23.792Z,100.00
2022-10-01T23:40:52.177Z,100.00
2022-10-01T23:43:37.852Z,100.00
2022-10-01T23:46:15.199Z,100.00
2022-10-01T23:49:13.985Z,100.00
2022-10-01T23:52:01.023Z,100.00
2022-10-01T23:54:45.833Z,100.00
2022-10-01T23:57:34.072Z,100.00
